sensor_id;sensor_type;location;lat;lon;timestamp;P1;durP1;ratioP1;P2;durP2;ratioP2
9541;SDS011;4809;48.224;8.572;2022-12-07T00:01:06;11.77;;;9.20;;
9541;SDS011;4809;48.224;8.572;2022-12-07T00:03:37;25.33;;;17.67;;
9541;SDS011;4809;48.224;8.572;2022-12-07T00:06:04;18.37;;;12.90;;
9541;SDS011;4809;48.224;8.572;2022-12-07T00:08:30;10.70;;;8.03;;
9541;SDS011;4809;48.224;8.572;2022-12-07T00:11:14;13.23;;;9.17;;
9541;SDS011;4809;48.224;8.572;2022-12-07T00:13:43;10.70;;;7.83;;
9541;SDS011;4809;48.224;8.572;2022-12-07T00:16:16;8.50;;;6.10;;
9541;SDS011;4809;48.224;8.572;2022-12-07T00:18:43;7.83;;;5.70;;
9541;SDS011;4809;48.224;8.572;2022-12-07T00:21:11;10.67;;;6.97;;
9541;SDS011;4809;48.224;8.572;2022-12-07T00:23:38;10.50;;;6.97;;
9541;SDS011;4809;48.224;8.572;2022-12-07T00:28:35;9.63;;;6.50;;
9541;SDS011;4809;48.224;8.572;2022-12-07T00:31:02;7.63;;;5.60;;
9541;SDS011;4809;48.224;8.572;2022-12-07T00:33:33;7.90;;;5.50;;
9541;SDS011;4809;48.224;8.572;2022-12-07T00:36:00;8.30;;;5.97;;
9541;SDS011;4809;48.224;8.572;2022-12-07T00:38:27;8.53;;;5.47;;
9541;SDS011;4809;48.224;8.572;2022-12-07T00:40:55;7.53;;;5.40;;
9541;SDS011;4809;48.224;8.572;2022-12-07T00:43:22;8.30;;;5.47;;
9541;SDS011;4809;48.224;8.572;2022-12-07T00:45:47;8.13;;;5.07;;
9541;SDS011;4809;48.224;8.572;2022-12-07T00:48:13;7.23;;;5.37;;
9541;SDS011;4809;48.224;8.572;2022-12-07T00:50:38;7.33;;;5.00;;
9541;SDS011;4809;48.224;8.572;2022-12-07T00:53:04;7.87;;;5.20;;
9541;SDS011;4809;48.224;8.572;2022-12-07T00:55:32;6.57;;;4.80;;
9541;SDS011;4809;48.224;8.572;2022-12-07T00:57:58;7.30;;;5.23;;
9541;SDS011;4809;48.224;8.572;2022-12-07T01:00:24;7.20;;;5.10;;
9541;SDS011;4809;48.224;8.572;2022-12-07T01:02:49;6.70;;;4.57;;
9541;SDS011;4809;48.224;8.572;2022-12-07T01:05:15;6.80;;;5.10;;
9541;SDS011;4809;48.224;8.572;2022-12-07T01:07:41;8.73;;;5.40;;
9541;SDS011;4809;48.224;8.572;2022-12-07T01:10:06;7.90;;;5.27;;
9541;SDS011;4809;48.224;8.572;2022-12-07T01:12:32;7.80;;;5.10;;
9541;SDS011;4809;48.224;8.572;2022-12-07T01:14:58;7.83;;;4.87;;
9541;SDS011;4809;48.224;8.572;2022-12-07T01:17:23;8.17;;;5.27;;
9541;SDS011;4809;48.224;8.572;2022-12-07T01:19:49;6.67;;;4.57;;
9541;SDS011;4809;48.224;8.572;2022-12-07T01:22:15;7.10;;;5.10;;
9541;SDS011;4809;48.224;8.572;2022-12-07T01:24:40;8.30;;;5.50;;
9541;SDS011;4809;48.224;8.572;2022-12-07T01:27:06;8.60;;;5.00;;
9541;SDS011;4809;48.224;8.572;2022-12-07T01:29:31;8.43;;;5.50;;
9541;SDS011;4809;48.224;8.572;2022-12-07T01:31:57;7.93;;;5.00;;
9541;SDS011;4809;48.224;8.572;2022-12-07T01:34:23;6.63;;;4.50;;
9541;SDS011;4809;48.224;8.572;2022-12-07T01:36:48;8.07;;;4.40;;
9541;SDS011;4809;48.224;8.572;2022-12-07T01:39:14;7.50;;;5.00;;
9541;SDS011;4809;48.224;8.572;2022-12-07T01:41:40;7.90;;;4.63;;
9541;SDS011;4809;48.224;8.572;2022-12-07T01:46:39;8.57;;;5.27;;
9541;SDS011;4809;48.224;8.572;2022-12-07T01:49:06;7.47;;;5.03;;
9541;SDS011;4809;48.224;8.572;2022-12-07T01:51:39;5.93;;;4.30;;
9541;SDS011;4809;48.224;8.572;2022-12-07T01:54:07;8.07;;;5.17;;
9541;SDS011;4809;48.224;8.572;2022-12-07T01:56:35;8.63;;;5.30;;
9541;SDS011;4809;48.224;8.572;2022-12-07T01:59:02;8.20;;;5.40;;
9541;SDS011;4809;48.224;8.572;2022-12-07T02:01:29;8.20;;;5.13;;
9541;SDS011;4809;48.224;8.572;2022-12-07T02:03:55;7.90;;;5.20;;
9541;SDS011;4809;48.224;8.572;2022-12-07T02:06:23;8.27;;;5.40;;
9541;SDS011;4809;48.224;8.572;2022-12-07T02:08:50;9.67;;;6.00;;
9541;SDS011;4809;48.224;8.572;2022-12-07T02:11:15;11.17;;;6.50;;
9541;SDS011;4809;48.224;8.572;2022-12-07T02:13:42;10.97;;;6.20;;
9541;SDS011;4809;48.224;8.572;2022-12-07T02:27:10;11.60;;;6.83;;
9541;SDS011;4809;48.224;8.572;2022-12-07T02:30:00;12.00;;;6.90;;
9541;SDS011;4809;48.224;8.572;2022-12-07T02:35:38;11.53;;;6.90;;
9541;SDS011;4809;48.224;8.572;2022-12-07T02:38:19;10.90;;;6.97;;
9541;SDS011;4809;48.224;8.572;2022-12-07T02:41:04;11.80;;;7.10;;
9541;SDS011;4809;48.224;8.572;2022-12-07T02:43:37;13.20;;;7.53;;
9541;SDS011;4809;48.224;8.572;2022-12-07T02:46:25;13.50;;;7.47;;
9541;SDS011;4809;48.224;8.572;2022-12-07T02:48:55;14.77;;;8.23;;
9541;SDS011;4809;48.224;8.572;2022-12-07T02:51:24;12.30;;;7.50;;
9541;SDS011;4809;48.224;8.572;2022-12-07T02:53:50;15.10;;;8.30;;
9541;SDS011;4809;48.224;8.572;2022-12-07T03:19:03;10.33;;;6.80;;
9541;SDS011;4809;48.224;8.572;2022-12-07T03:21:38;9.93;;;6.83;;
9541;SDS011;4809;48.224;8.572;2022-12-07T03:24:08;10.73;;;7.43;;
9541;SDS011;4809;48.224;8.572;2022-12-07T03:29:40;10.53;;;7.30;;
9541;SDS011;4809;48.224;8.572;2022-12-07T03:32:16;10.57;;;6.97;;
9541;SDS011;4809;48.224;8.572;2022-12-07T03:34:57;10.73;;;7.07;;
9541;SDS011;4809;48.224;8.572;2022-12-07T03:37:48;10.60;;;6.53;;
9541;SDS011;4809;48.224;8.572;2022-12-07T03:40:55;9.90;;;6.77;;
9541;SDS011;4809;48.224;8.572;2022-12-07T03:43:25;9.50;;;6.57;;
9541;SDS011;4809;48.224;8.572;2022-12-07T03:53:48;9.93;;;6.33;;
9541;SDS011;4809;48.224;8.572;2022-12-07T03:56:23;10.37;;;6.30;;
9541;SDS011;4809;48.224;8.572;2022-12-07T03:58:50;9.20;;;5.97;;
9541;SDS011;4809;48.224;8.572;2022-12-07T04:01:17;8.73;;;5.80;;
9541;SDS011;4809;48.224;8.572;2022-12-07T04:03:43;9.30;;;5.87;;
9541;SDS011;4809;48.224;8.572;2022-12-07T04:06:08;9.53;;;5.70;;
9541;SDS011;4809;48.224;8.572;2022-12-07T04:08:34;8.47;;;5.70;;
9541;SDS011;4809;48.224;8.572;2022-12-07T04:11:00;8.70;;;5.80;;
9541;SDS011;4809;48.224;8.572;2022-12-07T04:13:26;7.10;;;4.60;;
9541;SDS011;4809;48.224;8.572;2022-12-07T04:15:52;7.30;;;4.90;;
9541;SDS011;4809;48.224;8.572;2022-12-07T04:18:17;7.87;;;5.10;;
9541;SDS011;4809;48.224;8.572;2022-12-07T04:20:43;8.80;;;5.63;;
9541;SDS011;4809;48.224;8.572;2022-12-07T04:23:09;7.33;;;5.17;;
9541;SDS011;4809;48.224;8.572;2022-12-07T04:25:34;8.63;;;5.40;;
9541;SDS011;4809;48.224;8.572;2022-12-07T04:28:00;8.30;;;5.63;;
9541;SDS011;4809;48.224;8.572;2022-12-07T04:30:26;8.37;;;5.50;;
9541;SDS011;4809;48.224;8.572;2022-12-07T04:32:51;7.87;;;5.73;;
9541;SDS011;4809;48.224;8.572;2022-12-07T04:35:17;8.67;;;5.60;;
9541;SDS011;4809;48.224;8.572;2022-12-07T04:37:42;7.83;;;5.57;;
9541;SDS011;4809;48.224;8.572;2022-12-07T04:40:08;7.80;;;5.57;;
9541;SDS011;4809;48.224;8.572;2022-12-07T04:42:36;7.87;;;5.33;;
9541;SDS011;4809;48.224;8.572;2022-12-07T04:45:02;7.87;;;5.70;;
9541;SDS011;4809;48.224;8.572;2022-12-07T04:47:28;8.70;;;5.73;;
9541;SDS011;4809;48.224;8.572;2022-12-07T04:49:54;8.63;;;6.07;;
9541;SDS011;4809;48.224;8.572;2022-12-07T04:52:19;8.13;;;5.67;;
9541;SDS011;4809;48.224;8.572;2022-12-07T04:54:45;8.90;;;5.80;;
9541;SDS011;4809;48.224;8.572;2022-12-07T04:57:11;9.47;;;6.50;;
9541;SDS011;4809;48.224;8.572;2022-12-07T04:59:36;11.10;;;7.43;;
9541;SDS011;4809;48.224;8.572;2022-12-07T05:02:02;15.67;;;9.83;;
9541;SDS011;4809;48.224;8.572;2022-12-07T05:04:27;12.80;;;9.00;;
9541;SDS011;4809;48.224;8.572;2022-12-07T05:06:53;13.27;;;9.10;;
9541;SDS011;4809;48.224;8.572;2022-12-07T05:09:19;12.60;;;10.20;;
9541;SDS011;4809;48.224;8.572;2022-12-07T05:11:45;12.50;;;9.80;;
9541;SDS011;4809;48.224;8.572;2022-12-07T05:14:12;10.77;;;8.37;;
9541;SDS011;4809;48.224;8.572;2022-12-07T05:16:45;9.67;;;7.60;;
9541;SDS011;4809;48.224;8.572;2022-12-07T05:19:12;9.80;;;7.47;;
9541;SDS011;4809;48.224;8.572;2022-12-07T05:21:38;11.57;;;7.67;;
9541;SDS011;4809;48.224;8.572;2022-12-07T05:24:04;10.67;;;7.20;;
9541;SDS011;4809;48.224;8.572;2022-12-07T05:26:32;15.50;;;10.60;;
9541;SDS011;4809;48.224;8.572;2022-12-07T05:28:58;10.57;;;7.10;;
9541;SDS011;4809;48.224;8.572;2022-12-07T05:31:24;13.00;;;7.60;;
9541;SDS011;4809;48.224;8.572;2022-12-07T05:33:51;10.63;;;7.50;;
9541;SDS011;4809;48.224;8.572;2022-12-07T05:36:16;9.53;;;7.03;;
9541;SDS011;4809;48.224;8.572;2022-12-07T05:38:42;12.03;;;7.40;;
9541;SDS011;4809;48.224;8.572;2022-12-07T05:41:08;10.87;;;7.23;;
9541;SDS011;4809;48.224;8.572;2022-12-07T05:43:59;13.10;;;9.77;;
9541;SDS011;4809;48.224;8.572;2022-12-07T05:46:24;19.20;;;15.10;;
9541;SDS011;4809;48.224;8.572;2022-12-07T05:48:50;19.50;;;15.93;;
9541;SDS011;4809;48.224;8.572;2022-12-07T05:51:16;13.37;;;10.70;;
9541;SDS011;4809;48.224;8.572;2022-12-07T05:53:41;11.30;;;8.83;;
9541;SDS011;4809;48.224;8.572;2022-12-07T05:56:07;12.87;;;10.03;;
9541;SDS011;4809;48.224;8.572;2022-12-07T05:58:32;13.27;;;9.47;;
9541;SDS011;4809;48.224;8.572;2022-12-07T06:01:17;10.20;;;7.60;;
9541;SDS011;4809;48.224;8.572;2022-12-07T06:03:42;10.30;;;7.63;;
9541;SDS011;4809;48.224;8.572;2022-12-07T06:06:08;11.77;;;8.23;;
9541;SDS011;4809;48.224;8.572;2022-12-07T06:08:33;10.47;;;7.57;;
9541;SDS011;4809;48.224;8.572;2022-12-07T06:10:59;9.63;;;7.20;;
9541;SDS011;4809;48.224;8.572;2022-12-07T06:13:43;9.87;;;7.00;;
9541;SDS011;4809;48.224;8.572;2022-12-07T06:16:09;10.90;;;7.87;;
9541;SDS011;4809;48.224;8.572;2022-12-07T06:18:34;10.03;;;7.10;;
9541;SDS011;4809;48.224;8.572;2022-12-07T06:21:00;11.90;;;7.90;;
9541;SDS011;4809;48.224;8.572;2022-12-07T06:23:26;20.53;;;13.17;;
9541;SDS011;4809;48.224;8.572;2022-12-07T06:25:51;18.70;;;11.97;;
9541;SDS011;4809;48.224;8.572;2022-12-07T06:28:17;13.70;;;8.87;;
9541;SDS011;4809;48.224;8.572;2022-12-07T06:30:42;9.77;;;6.20;;
9541;SDS011;4809;48.224;8.572;2022-12-07T06:33:08;8.33;;;5.40;;
9541;SDS011;4809;48.224;8.572;2022-12-07T06:35:34;9.33;;;5.77;;
9541;SDS011;4809;48.224;8.572;2022-12-07T06:37:59;8.37;;;6.20;;
9541;SDS011;4809;48.224;8.572;2022-12-07T06:40:25;9.23;;;7.20;;
9541;SDS011;4809;48.224;8.572;2022-12-07T06:42:51;11.07;;;8.20;;
9541;SDS011;4809;48.224;8.572;2022-12-07T06:45:16;9.73;;;7.10;;
9541;SDS011;4809;48.224;8.572;2022-12-07T06:47:42;9.77;;;7.17;;
9541;SDS011;4809;48.224;8.572;2022-12-07T06:50:07;10.30;;;8.07;;
9541;SDS011;4809;48.224;8.572;2022-12-07T06:52:34;10.40;;;7.37;;
9541;SDS011;4809;48.224;8.572;2022-12-07T06:54:59;10.53;;;7.43;;
9541;SDS011;4809;48.224;8.572;2022-12-07T06:57:25;28.37;;;16.13;;
9541;SDS011;4809;48.224;8.572;2022-12-07T06:59:51;29.10;;;15.80;;
9541;SDS011;4809;48.224;8.572;2022-12-07T07:02:17;21.53;;;11.47;;
9541;SDS011;4809;48.224;8.572;2022-12-07T07:04:43;14.77;;;10.57;;
9541;SDS011;4809;48.224;8.572;2022-12-07T07:07:08;23.03;;;14.70;;
9541;SDS011;4809;48.224;8.572;2022-12-07T07:09:34;22.20;;;14.17;;
9541;SDS011;4809;48.224;8.572;2022-12-07T07:12:00;89.07;;;45.73;;
9541;SDS011;4809;48.224;8.572;2022-12-07T07:14:25;55.83;;;31.23;;
9541;SDS011;4809;48.224;8.572;2022-12-07T07:16:51;30.53;;;16.83;;
9541;SDS011;4809;48.224;8.572;2022-12-07T07:19:17;24.53;;;13.50;;
9541;SDS011;4809;48.224;8.572;2022-12-07T07:21:43;19.53;;;12.97;;
9541;SDS011;4809;48.224;8.572;2022-12-07T07:24:09;14.47;;;9.23;;
9541;SDS011;4809;48.224;8.572;2022-12-07T07:26:35;13.57;;;9.43;;
9541;SDS011;4809;48.224;8.572;2022-12-07T07:29:00;13.20;;;8.97;;
9541;SDS011;4809;48.224;8.572;2022-12-07T07:31:26;24.17;;;18.70;;
9541;SDS011;4809;48.224;8.572;2022-12-07T07:33:51;19.37;;;14.10;;
9541;SDS011;4809;48.224;8.572;2022-12-07T07:36:17;16.10;;;10.77;;
9541;SDS011;4809;48.224;8.572;2022-12-07T07:38:43;11.83;;;8.20;;
9541;SDS011;4809;48.224;8.572;2022-12-07T07:41:08;12.10;;;8.63;;
9541;SDS011;4809;48.224;8.572;2022-12-07T07:43:34;11.10;;;8.17;;
9541;SDS011;4809;48.224;8.572;2022-12-07T07:46:00;12.33;;;8.40;;
9541;SDS011;4809;48.224;8.572;2022-12-07T07:48:25;13.20;;;8.77;;
9541;SDS011;4809;48.224;8.572;2022-12-07T07:50:51;12.97;;;8.70;;
9541;SDS011;4809;48.224;8.572;2022-12-07T07:53:17;13.43;;;8.27;;
9541;SDS011;4809;48.224;8.572;2022-12-07T07:55:50;15.53;;;9.57;;
9541;SDS011;4809;48.224;8.572;2022-12-07T07:58:17;13.77;;;9.07;;
9541;SDS011;4809;48.224;8.572;2022-12-07T08:00:42;14.50;;;9.10;;
9541;SDS011;4809;48.224;8.572;2022-12-07T08:03:08;22.63;;;11.37;;
9541;SDS011;4809;48.224;8.572;2022-12-07T08:05:33;17.97;;;11.13;;
9541;SDS011;4809;48.224;8.572;2022-12-07T08:08:01;12.57;;;8.40;;
9541;SDS011;4809;48.224;8.572;2022-12-07T08:10:27;24.17;;;12.80;;
9541;SDS011;4809;48.224;8.572;2022-12-07T08:12:52;23.87;;;12.30;;
9541;SDS011;4809;48.224;8.572;2022-12-07T08:15:36;26.83;;;13.93;;
9541;SDS011;4809;48.224;8.572;2022-12-07T08:18:03;21.40;;;12.10;;
9541;SDS011;4809;48.224;8.572;2022-12-07T08:20:30;18.73;;;10.03;;
9541;SDS011;4809;48.224;8.572;2022-12-07T08:22:57;17.20;;;9.50;;
9541;SDS011;4809;48.224;8.572;2022-12-07T08:25:22;15.00;;;8.70;;
9541;SDS011;4809;48.224;8.572;2022-12-07T08:27:48;14.47;;;8.43;;
9541;SDS011;4809;48.224;8.572;2022-12-07T08:30:15;16.90;;;9.37;;
9541;SDS011;4809;48.224;8.572;2022-12-07T08:32:41;49.33;;;36.30;;
9541;SDS011;4809;48.224;8.572;2022-12-07T08:35:08;18.53;;;10.97;;
9541;SDS011;4809;48.224;8.572;2022-12-07T08:37:34;19.77;;;11.80;;
9541;SDS011;4809;48.224;8.572;2022-12-07T08:40:00;20.23;;;14.63;;
9541;SDS011;4809;48.224;8.572;2022-12-07T08:42:26;16.90;;;10.53;;
9541;SDS011;4809;48.224;8.572;2022-12-07T08:45:03;17.90;;;11.67;;
9541;SDS011;4809;48.224;8.572;2022-12-07T08:47:33;15.13;;;9.43;;
9541;SDS011;4809;48.224;8.572;2022-12-07T08:50:04;15.33;;;9.50;;
9541;SDS011;4809;48.224;8.572;2022-12-07T08:52:32;12.33;;;8.37;;
9541;SDS011;4809;48.224;8.572;2022-12-07T08:54:59;13.03;;;9.37;;
9541;SDS011;4809;48.224;8.572;2022-12-07T08:57:26;11.33;;;8.10;;
9541;SDS011;4809;48.224;8.572;2022-12-07T08:59:53;10.07;;;7.20;;
9541;SDS011;4809;48.224;8.572;2022-12-07T09:02:19;10.10;;;7.43;;
9541;SDS011;4809;48.224;8.572;2022-12-07T09:04:45;11.63;;;7.67;;
9541;SDS011;4809;48.224;8.572;2022-12-07T09:07:10;10.07;;;7.50;;
9541;SDS011;4809;48.224;8.572;2022-12-07T09:09:36;10.63;;;7.13;;
9541;SDS011;4809;48.224;8.572;2022-12-07T09:12:02;14.37;;;10.00;;
9541;SDS011;4809;48.224;8.572;2022-12-07T09:14:28;10.47;;;7.80;;
9541;SDS011;4809;48.224;8.572;2022-12-07T09:16:54;9.77;;;7.50;;
9541;SDS011;4809;48.224;8.572;2022-12-07T09:19:20;10.37;;;7.03;;
9541;SDS011;4809;48.224;8.572;2022-12-07T09:21:45;13.63;;;10.07;;
9541;SDS011;4809;48.224;8.572;2022-12-07T09:24:12;10.63;;;7.60;;
9541;SDS011;4809;48.224;8.572;2022-12-07T09:26:38;10.30;;;6.97;;
9541;SDS011;4809;48.224;8.572;2022-12-07T09:29:05;10.33;;;7.00;;
9541;SDS011;4809;48.224;8.572;2022-12-07T09:31:31;9.60;;;6.87;;
9541;SDS011;4809;48.224;8.572;2022-12-07T09:33:57;10.27;;;6.97;;
9541;SDS011;4809;48.224;8.572;2022-12-07T09:36:25;9.70;;;6.87;;
9541;SDS011;4809;48.224;8.572;2022-12-07T09:38:51;9.40;;;7.37;;
9541;SDS011;4809;48.224;8.572;2022-12-07T09:41:17;8.63;;;6.77;;
9541;SDS011;4809;48.224;8.572;2022-12-07T09:43:43;9.17;;;6.90;;
9541;SDS011;4809;48.224;8.572;2022-12-07T09:46:12;8.47;;;6.60;;
9541;SDS011;4809;48.224;8.572;2022-12-07T09:48:40;8.70;;;6.20;;
9541;SDS011;4809;48.224;8.572;2022-12-07T09:51:25;8.93;;;6.43;;
9541;SDS011;4809;48.224;8.572;2022-12-07T09:53:52;8.27;;;6.40;;
9541;SDS011;4809;48.224;8.572;2022-12-07T09:56:21;9.40;;;6.50;;
9541;SDS011;4809;48.224;8.572;2022-12-07T09:58:47;7.57;;;5.77;;
9541;SDS011;4809;48.224;8.572;2022-12-07T10:01:15;8.57;;;5.67;;
9541;SDS011;4809;48.224;8.572;2022-12-07T10:03:46;7.00;;;5.30;;
9541;SDS011;4809;48.224;8.572;2022-12-07T10:06:16;6.90;;;5.20;;
9541;SDS011;4809;48.224;8.572;2022-12-07T10:08:42;6.77;;;5.07;;
9541;SDS011;4809;48.224;8.572;2022-12-07T10:11:08;6.60;;;5.30;;
9541;SDS011;4809;48.224;8.572;2022-12-07T10:13:39;6.83;;;4.87;;
9541;SDS011;4809;48.224;8.572;2022-12-07T10:16:26;9.40;;;6.50;;
9541;SDS011;4809;48.224;8.572;2022-12-07T10:18:57;7.90;;;5.27;;
9541;SDS011;4809;48.224;8.572;2022-12-07T10:24:40;6.37;;;4.53;;
9541;SDS011;4809;48.224;8.572;2022-12-07T10:30:03;6.20;;;4.70;;
9541;SDS011;4809;48.224;8.572;2022-12-07T10:32:38;5.77;;;4.57;;
9541;SDS011;4809;48.224;8.572;2022-12-07T10:35:21;5.63;;;4.43;;
9541;SDS011;4809;48.224;8.572;2022-12-07T10:37:47;5.93;;;4.63;;
9541;SDS011;4809;48.224;8.572;2022-12-07T10:40:24;5.67;;;4.20;;
9541;SDS011;4809;48.224;8.572;2022-12-07T10:43:03;4.60;;;3.90;;
9541;SDS011;4809;48.224;8.572;2022-12-07T10:46:07;6.43;;;4.53;;
9541;SDS011;4809;48.224;8.572;2022-12-07T10:51:48;5.33;;;4.10;;
9541;SDS011;4809;48.224;8.572;2022-12-07T10:57:43;4.83;;;3.60;;
9541;SDS011;4809;48.224;8.572;2022-12-07T11:00:22;5.57;;;4.47;;
9541;SDS011;4809;48.224;8.572;2022-12-07T11:03:05;5.78;;;4.40;;
9541;SDS011;4809;48.224;8.572;2022-12-07T11:08:54;4.65;;;3.90;;
9541;SDS011;4809;48.224;8.572;2022-12-07T11:22:23;5.35;;;3.70;;
9541;SDS011;4809;48.224;8.572;2022-12-07T11:30:22;5.68;;;4.28;;
9541;SDS011;4809;48.224;8.572;2022-12-07T11:38:32;4.05;;;2.95;;
9541;SDS011;4809;48.224;8.572;2022-12-07T11:41:06;4.85;;;3.00;;
9541;SDS011;4809;48.224;8.572;2022-12-07T11:43:37;4.10;;;2.95;;
9541;SDS011;4809;48.224;8.572;2022-12-07T11:46:17;5.40;;;3.70;;
9541;SDS011;4809;48.224;8.572;2022-12-07T11:48:47;4.85;;;3.58;;
9541;SDS011;4809;48.224;8.572;2022-12-07T11:51:14;5.57;;;4.28;;
9541;SDS011;4809;48.224;8.572;2022-12-07T11:56:19;4.77;;;3.50;;
9541;SDS011;4809;48.224;8.572;2022-12-07T12:06:26;4.10;;;3.57;;
9541;SDS011;4809;48.224;8.572;2022-12-07T12:08:57;4.97;;;4.07;;
9541;SDS011;4809;48.224;8.572;2022-12-07T12:17:18;3.63;;;2.97;;
9541;SDS011;4809;48.224;8.572;2022-12-07T12:22:58;4.50;;;3.20;;
9541;SDS011;4809;48.224;8.572;2022-12-07T12:25:38;3.40;;;3.00;;
9541;SDS011;4809;48.224;8.572;2022-12-07T12:31:04;3.97;;;3.03;;
9541;SDS011;4809;48.224;8.572;2022-12-07T12:33:37;4.30;;;3.20;;
9541;SDS011;4809;48.224;8.572;2022-12-07T12:36:46;3.67;;;3.00;;
9541;SDS011;4809;48.224;8.572;2022-12-07T12:39:16;3.33;;;2.70;;
9541;SDS011;4809;48.224;8.572;2022-12-07T12:46:54;4.63;;;3.27;;
9541;SDS011;4809;48.224;8.572;2022-12-07T12:49:32;4.33;;;3.40;;
9541;SDS011;4809;48.224;8.572;2022-12-07T12:54:57;4.53;;;3.17;;
9541;SDS011;4809;48.224;8.572;2022-12-07T12:57:27;3.97;;;3.30;;
9541;SDS011;4809;48.224;8.572;2022-12-07T12:59:59;5.83;;;4.27;;
9541;SDS011;4809;48.224;8.572;2022-12-07T13:02:29;6.13;;;4.60;;
9541;SDS011;4809;48.224;8.572;2022-12-07T13:04:59;5.07;;;4.03;;
9541;SDS011;4809;48.224;8.572;2022-12-07T13:18:48;5.00;;;3.40;;
9541;SDS011;4809;48.224;8.572;2022-12-07T13:20:58;3.63;;;3.00;;
9541;SDS011;4809;48.224;8.572;2022-12-07T13:26:18;4.93;;;3.10;;
9541;SDS011;4809;48.224;8.572;2022-12-07T13:28:51;4.83;;;2.97;;
9541;SDS011;4809;48.224;8.572;2022-12-07T13:31:42;5.63;;;3.27;;
9541;SDS011;4809;48.224;8.572;2022-12-07T13:34:28;5.17;;;3.37;;
9541;SDS011;4809;48.224;8.572;2022-12-07T13:36:54;4.10;;;3.00;;
9541;SDS011;4809;48.224;8.572;2022-12-07T13:39:21;6.53;;;3.90;;
9541;SDS011;4809;48.224;8.572;2022-12-07T13:41:50;5.27;;;3.30;;
9541;SDS011;4809;48.224;8.572;2022-12-07T13:44:18;3.63;;;2.80;;
9541;SDS011;4809;48.224;8.572;2022-12-07T13:46:56;4.17;;;3.00;;
9541;SDS011;4809;48.224;8.572;2022-12-07T13:49:33;3.80;;;3.00;;
9541;SDS011;4809;48.224;8.572;2022-12-07T13:52:12;3.53;;;2.90;;
9541;SDS011;4809;48.224;8.572;2022-12-07T13:55:39;4.83;;;3.27;;
9541;SDS011;4809;48.224;8.572;2022-12-07T13:57:39;4.37;;;3.30;;
9541;SDS011;4809;48.224;8.572;2022-12-07T14:00:13;6.03;;;4.43;;
9541;SDS011;4809;48.224;8.572;2022-12-07T14:13:37;3.90;;;3.30;;
9541;SDS011;4809;48.224;8.572;2022-12-07T14:16:17;4.00;;;3.27;;
9541;SDS011;4809;48.224;8.572;2022-12-07T14:18:50;3.67;;;3.10;;
9541;SDS011;4809;48.224;8.572;2022-12-07T14:21:16;4.47;;;3.30;;
9541;SDS011;4809;48.224;8.572;2022-12-07T14:23:44;4.90;;;3.87;;
9541;SDS011;4809;48.224;8.572;2022-12-07T14:26:26;5.07;;;3.37;;
9541;SDS011;4809;48.224;8.572;2022-12-07T14:28:52;5.17;;;3.63;;
9541;SDS011;4809;48.224;8.572;2022-12-07T14:31:18;4.30;;;3.50;;
9541;SDS011;4809;48.224;8.572;2022-12-07T14:33:48;4.57;;;3.40;;
9541;SDS011;4809;48.224;8.572;2022-12-07T14:36:14;4.77;;;3.50;;
9541;SDS011;4809;48.224;8.572;2022-12-07T14:38:40;4.83;;;3.50;;
9541;SDS011;4809;48.224;8.572;2022-12-07T14:41:06;5.63;;;4.10;;
9541;SDS011;4809;48.224;8.572;2022-12-07T14:43:56;3.97;;;3.20;;
9541;SDS011;4809;48.224;8.572;2022-12-07T14:46:22;4.80;;;3.63;;
9541;SDS011;4809;48.224;8.572;2022-12-07T14:48:48;4.43;;;3.33;;
9541;SDS011;4809;48.224;8.572;2022-12-07T14:51:13;3.87;;;2.83;;
9541;SDS011;4809;48.224;8.572;2022-12-07T14:53:41;3.30;;;3.00;;
9541;SDS011;4809;48.224;8.572;2022-12-07T14:56:09;3.47;;;2.70;;
9541;SDS011;4809;48.224;8.572;2022-12-07T14:58:35;3.33;;;2.70;;
9541;SDS011;4809;48.224;8.572;2022-12-07T15:01:01;3.47;;;2.83;;
9541;SDS011;4809;48.224;8.572;2022-12-07T15:03:26;4.27;;;2.93;;
9541;SDS011;4809;48.224;8.572;2022-12-07T15:05:52;4.80;;;3.00;;
9541;SDS011;4809;48.224;8.572;2022-12-07T15:08:18;3.63;;;2.97;;
9541;SDS011;4809;48.224;8.572;2022-12-07T15:10:43;3.80;;;2.90;;
9541;SDS011;4809;48.224;8.572;2022-12-07T15:13:09;3.77;;;2.90;;
9541;SDS011;4809;48.224;8.572;2022-12-07T15:15:54;5.63;;;2.93;;
9541;SDS011;4809;48.224;8.572;2022-12-07T15:18:20;3.47;;;2.80;;
9541;SDS011;4809;48.224;8.572;2022-12-07T15:20:49;4.00;;;2.77;;
9541;SDS011;4809;48.224;8.572;2022-12-07T15:23:16;4.00;;;2.90;;
9541;SDS011;4809;48.224;8.572;2022-12-07T15:25:42;5.63;;;3.13;;
9541;SDS011;4809;48.224;8.572;2022-12-07T15:28:09;5.50;;;3.50;;
9541;SDS011;4809;48.224;8.572;2022-12-07T15:30:38;4.73;;;3.27;;
9541;SDS011;4809;48.224;8.572;2022-12-07T15:33:05;4.23;;;3.40;;
9541;SDS011;4809;48.224;8.572;2022-12-07T15:35:31;4.03;;;3.60;;
9541;SDS011;4809;48.224;8.572;2022-12-07T15:37:56;5.07;;;3.53;;
9541;SDS011;4809;48.224;8.572;2022-12-07T15:40:22;4.70;;;3.73;;
9541;SDS011;4809;48.224;8.572;2022-12-07T15:42:48;4.93;;;3.63;;
9541;SDS011;4809;48.224;8.572;2022-12-07T15:45:13;5.13;;;4.10;;
9541;SDS011;4809;48.224;8.572;2022-12-07T15:47:41;7.43;;;6.57;;
9541;SDS011;4809;48.224;8.572;2022-12-07T15:50:12;5.83;;;4.70;;
9541;SDS011;4809;48.224;8.572;2022-12-07T15:52:39;7.63;;;5.97;;
9541;SDS011;4809;48.224;8.572;2022-12-07T15:55:05;8.40;;;7.00;;
9541;SDS011;4809;48.224;8.572;2022-12-07T15:57:32;6.33;;;4.80;;
9541;SDS011;4809;48.224;8.572;2022-12-07T15:59:58;7.20;;;5.30;;
9541;SDS011;4809;48.224;8.572;2022-12-07T16:02:24;5.20;;;4.00;;
9541;SDS011;4809;48.224;8.572;2022-12-07T16:04:50;5.27;;;4.30;;
9541;SDS011;4809;48.224;8.572;2022-12-07T16:07:17;6.63;;;4.67;;
9541;SDS011;4809;48.224;8.572;2022-12-07T16:09:43;5.70;;;4.43;;
9541;SDS011;4809;48.224;8.572;2022-12-07T16:12:10;7.30;;;5.60;;
9541;SDS011;4809;48.224;8.572;2022-12-07T16:14:36;7.50;;;5.07;;
9541;SDS011;4809;48.224;8.572;2022-12-07T16:17:03;11.87;;;7.87;;
9541;SDS011;4809;48.224;8.572;2022-12-07T16:19:29;8.80;;;6.23;;
9541;SDS011;4809;48.224;8.572;2022-12-07T16:21:55;8.37;;;5.70;;
9541;SDS011;4809;48.224;8.572;2022-12-07T16:24:21;7.93;;;5.07;;
9541;SDS011;4809;48.224;8.572;2022-12-07T16:26:47;9.77;;;6.60;;
9541;SDS011;4809;48.224;8.572;2022-12-07T16:29:14;7.90;;;5.90;;
9541;SDS011;4809;48.224;8.572;2022-12-07T16:31:40;7.70;;;5.40;;
9541;SDS011;4809;48.224;8.572;2022-12-07T16:34:06;6.57;;;5.00;;
9541;SDS011;4809;48.224;8.572;2022-12-07T16:36:32;7.60;;;5.10;;
9541;SDS011;4809;48.224;8.572;2022-12-07T16:38:58;11.30;;;7.00;;
9541;SDS011;4809;48.224;8.572;2022-12-07T16:41:25;14.37;;;8.97;;
9541;SDS011;4809;48.224;8.572;2022-12-07T16:43:51;13.73;;;8.80;;
9541;SDS011;4809;48.224;8.572;2022-12-07T16:46:16;12.50;;;7.53;;
9541;SDS011;4809;48.224;8.572;2022-12-07T16:48:42;11.70;;;7.90;;
9541;SDS011;4809;48.224;8.572;2022-12-07T16:51:09;13.77;;;8.97;;
9541;SDS011;4809;48.224;8.572;2022-12-07T16:53:37;21.63;;;13.23;;
9541;SDS011;4809;48.224;8.572;2022-12-07T16:56:12;23.13;;;14.67;;
9541;SDS011;4809;48.224;8.572;2022-12-07T16:58:40;15.93;;;10.93;;
9541;SDS011;4809;48.224;8.572;2022-12-07T17:01:13;13.37;;;10.90;;
9541;SDS011;4809;48.224;8.572;2022-12-07T17:03:41;11.53;;;8.87;;
9541;SDS011;4809;48.224;8.572;2022-12-07T17:06:14;10.67;;;8.70;;
9541;SDS011;4809;48.224;8.572;2022-12-07T17:08:48;8.47;;;6.10;;
9541;SDS011;4809;48.224;8.572;2022-12-07T17:11:15;8.03;;;6.53;;
9541;SDS011;4809;48.224;8.572;2022-12-07T17:13:46;13.80;;;10.47;;
9541;SDS011;4809;48.224;8.572;2022-12-07T17:16:30;18.10;;;12.90;;
9541;SDS011;4809;48.224;8.572;2022-12-07T17:18:56;20.43;;;18.30;;
9541;SDS011;4809;48.224;8.572;2022-12-07T17:21:22;12.43;;;10.37;;
9541;SDS011;4809;48.224;8.572;2022-12-07T17:23:49;9.73;;;6.80;;
9541;SDS011;4809;48.224;8.572;2022-12-07T17:26:16;15.50;;;12.23;;
9541;SDS011;4809;48.224;8.572;2022-12-07T17:28:47;9.40;;;6.90;;
9541;SDS011;4809;48.224;8.572;2022-12-07T17:31:13;8.07;;;6.70;;
9541;SDS011;4809;48.224;8.572;2022-12-07T17:33:41;8.27;;;6.43;;
9541;SDS011;4809;48.224;8.572;2022-12-07T17:36:13;8.80;;;7.00;;
9541;SDS011;4809;48.224;8.572;2022-12-07T17:38:48;9.80;;;6.07;;
9541;SDS011;4809;48.224;8.572;2022-12-07T17:41:15;8.33;;;5.90;;
9541;SDS011;4809;48.224;8.572;2022-12-07T17:44:06;7.40;;;5.83;;